Time;durP1;ratioP1;P1;durP2;ratioP2;P2;SDS_P1;SDS_P2;PMS_P1;PMS_P2;Temp;Humidity;BMP_temperature;BMP_pressure;BME280_temperature;BME280_humidity;BME280_pressure;Samples;Min_cycle;Max_cycle;Signal;HPM_P1;HPM_P2
2022/10/27 00:01:05;;;;;;;9.35;4.82;;;;;;;13.69;71.87;101541.25;5066887;28;20091;-74
2022/10/27 00:03:30;;;;;;;8.88;5.43;;;;;;;13.77;71.92;101556.25;5068434;28;20055;-73
2022/10/27 00:06:02;;;;;;;10.10;5.18;;;;;;;13.81;71.28;101544.81;5068578;28;20060;-72
2022/10/27 00:08:27;;;;;;;8.95;5.00;;;;;;;13.87;71.32;101558.94;5068184;28;20689;-74
2022/10/27 00:11:03;;;;;;;11.25;5.50;;;;;;;13.11;71.11;101430.19;5068052;28;20024;-74
2022/10/27 00:13:29;;;;;;;10.88;5.50;;;;;;;13.18;71.79;101466.25;5082856;28;20509;-74
2022/10/27 00:16:04;;;;;;;15.10;6.50;;;;;;;13.14;72.31;101472.34;5083669;28;20281;-74
2022/10/27 00:18:30;;;;;;;11.18;5.90;;;;;;;12.97;71.46;101432.72;5073909;28;20052;-74
2022/10/27 00:21:18;;;;;;;12.25;5.50;;;;;;;13.81;72.85;101565.94;5072802;28;20158;-74
2022/10/27 00:23:46;;;;;;;11.68;5.93;;;;;;;12.90;74.13;101423.03;5068116;28;20048;-74
2022/10/27 00:26:14;;;;;;;9.20;5.70;;;;;;;13.54;72.04;101549.09;5049538;28;20071;-73
2022/10/27 00:28:40;;;;;;;9.95;5.28;;;;;;;12.99;71.90;101452.03;5068503;28;20036;-74
2022/10/27 00:31:10;;;;;;;11.57;5.47;;;;;;;13.02;71.59;101449.44;5068542;28;20040;-74
2022/10/27 00:33:36;;;;;;;7.53;4.85;;;;;;;13.21;71.92;101495.25;5067128;28;20040;-74
2022/10/27 00:36:03;;;;;;;19.20;6.07;;;;;;;13.10;72.09;101496.91;5067826;28;20090;-74
2022/10/27 00:38:29;;;;;;;10.00;6.47;;;;;;;12.77;72.42;101455.41;5068341;28;20029;-73
2022/10/27 00:40:54;;;;;;;7.78;4.72;;;;;;;13.57;72.24;101583.38;5067892;28;20114;-73
2022/10/27 00:43:31;;;;;;;9.30;6.80;;;;;;;13.12;73.23;101532.06;5064502;28;20030;-74
2022/10/27 00:46:36;;;;;;;8.90;5.28;;;;;;;13.29;73.70;101567.34;5073306;28;20093;-74
2022/10/27 00:49:09;;;;;;;10.88;5.13;;;;;;;12.75;73.39;101470.31;5080989;28;20441;-74
2022/10/27 00:51:39;;;;;;;12.77;5.20;;;;;;;13.30;73.44;101577.03;5067433;28;20049;-72
2022/10/27 00:54:05;;;;;;;8.98;4.57;;;;;;;13.17;73.58;101555.81;5077005;28;20136;-72
2022/10/27 00:56:31;;;;;;;9.25;5.50;;;;;;;13.18;73.87;101581.28;5040142;28;20056;-73
2022/10/27 00:58:56;;;;;;;10.38;5.20;;;;;;;12.62;73.70;101485.13;5029436;28;20484;-73
2022/10/27 01:01:22;;;;;;;12.07;5.93;;;;;;;12.28;74.72;101450.59;5047984;28;20034;-74
2022/10/27 01:03:48;;;;;;;7.68;4.90;;;;;;;12.32;74.60;101462.91;5047800;28;20033;-73
2022/10/27 01:06:14;;;;;;;8.82;5.18;;;;;;;11.64;74.88;101353.47;5029102;28;20037;-74
2022/10/27 01:08:40;;;;;;;8.65;5.47;;;;;;;12.14;75.35;101449.56;5054858;28;20118;-75
2022/10/27 01:11:05;;;;;;;9.55;5.25;;;;;;;12.70;75.63;101564.19;5084542;28;20161;-74
2022/10/27 01:13:31;;;;;;;11.93;5.25;;;;;;;12.18;75.39;101462.75;5088440;28;20028;-74
2022/10/27 01:16:02;;;;;;;11.65;5.25;;;;;;;12.79;75.74;101570.44;5085885;28;20040;-75
2022/10/27 01:18:34;;;;;;;6.88;5.18;;;;;;;12.78;76.05;101587.13;5067186;28;20049;-73
2022/10/27 01:21:05;;;;;;;8.93;5.97;;;;;;;12.76;76.16;101570.41;5065944;28;20048;-73
2022/10/27 01:23:39;;;;;;;11.23;6.28;;;;;;;12.70;76.80;101580.88;5067125;28;20048;-73
2022/10/27 01:26:17;;;;;;;8.45;5.43;;;;;;;12.65;76.94;101575.56;5064914;28;20036;-72
2022/10/27 01:29:06;;;;;;;10.85;5.72;;;;;;;11.76;77.47;101439.47;5067559;28;20028;-74
2022/10/27 01:31:49;;;;;;;9.30;5.50;;;;;;;11.81;77.50;101429.88;5041232;28;20060;-74
2022/10/27 01:34:26;;;;;;;8.38;5.28;;;;;;;12.57;77.72;101582.50;5047816;28;21027;-75
2022/10/27 01:37:00;;;;;;;11.88;5.72;;;;;;;12.38;78.51;101575.25;5048770;28;20041;-73
2022/10/27 01:39:50;;;;;;;8.60;4.90;;;;;;;11.55;78.81;101445.34;5048685;28;20442;-74
2022/10/27 01:42:24;;;;;;;10.00;5.18;;;;;;;12.34;78.60;101574.34;5063882;28;20051;-75
2022/10/27 01:44:53;;;;;;;9.13;5.03;;;;;;;12.38;78.50;101583.16;5066598;28;20500;-74
2022/10/27 01:47:20;;;;;;;8.30;5.68;;;;;;;11.57;78.30;101449.75;5066931;28;20041;-73
2022/10/27 01:49:45;;;;;;;10.13;5.00;;;;;;;11.90;78.69;101523.84;5067684;28;20024;-74
2022/10/27 01:52:46;;;;;;;7.95;4.80;;;;;;;12.21;78.82;101588.22;5066913;28;20370;-74
2022/10/27 01:55:20;;;;;;;8.15;5.07;;;;;;;12.07;78.54;101555.59;5071661;28;20055;-74
2022/10/27 01:57:48;;;;;;;6.85;5.18;;;;;;;12.30;78.08;101595.34;5054584;28;20496;-73
2022/10/27 02:00:14;;;;;;;7.63;4.90;;;;;;;11.52;77.61;101455.81;5053266;28;20075;-73
2022/10/27 02:02:52;;;;;;;14.48;5.28;;;;;;;12.22;77.36;101593.50;5053249;28;20597;-74
2022/10/27 02:05:42;;;;;;;6.28;3.95;;;;;;;12.17;78.08;101597.81;5069502;28;20040;-74
2022/10/27 02:08:37;;;;;;;10.15;5.68;;;;;;;12.04;77.92;101565.22;5092932;28;20034;-74
2022/10/27 02:11:05;;;;;;;8.90;5.40;;;;;;;11.98;77.97;101574.78;5071830;28;20139;-73
2022/10/27 02:13:38;;;;;;;6.45;5.03;;;;;;;12.03;78.73;101592.41;5084991;28;20036;-74
2022/10/27 02:16:07;;;;;;;11.93;5.00;;;;;;;11.97;78.96;101586.16;5093405;28;20040;-74
2022/10/27 02:18:37;;;;;;;8.77;5.35;;;;;;;11.35;78.90;101466.97;5092977;28;20131;-74
2022/10/27 02:21:05;;;;;;;8.80;5.20;;;;;;;11.22;79.72;101469.44;5093334;28;20071;-74
2022/10/27 02:23:31;;;;;;;7.22;4.78;;;;;;;12.02;79.58;101603.78;5093019;28;20483;-74
2022/10/27 02:26:04;;;;;;;7.18;5.00;;;;;;;11.89;79.86;101590.44;5081805;28;20111;-74
2022/10/27 02:28:59;;;;;;;10.80;5.30;;;;;;;12.03;80.22;101609.91;5057263;28;20028;-74
2022/10/27 02:31:34;;;;;;;12.27;5.57;;;;;;;11.95;79.73;101617.72;5056631;28;20145;-75
2022/10/27 02:34:00;;;;;;;9.32;4.88;;;;;;;11.82;79.82;101600.84;5034911;28;20511;-73
2022/10/27 02:36:26;;;;;;;12.75;6.32;;;;;;;11.65;80.50;101591.81;5071194;28;20055;-74
2022/10/27 02:38:51;;;;;;;8.68;5.50;;;;;;;11.01;80.85;101489.25;5071480;28;20056;-73
2022/10/27 02:41:17;;;;;;;11.18;5.57;;;;;;;10.78;80.89;101460.88;5071279;28;20045;-73
2022/10/27 02:43:42;;;;;;;11.07;4.47;;;;;;;11.63;81.52;101627.72;5071755;28;20032;-73
2022/10/27 02:46:08;;;;;;;6.30;4.63;;;;;;;11.74;81.35;101622.63;5072233;28;20746;-73
2022/10/27 02:48:33;;;;;;;9.35;5.35;;;;;;;11.51;81.60;101582.84;5072856;28;20384;-73
2022/10/27 02:50:59;;;;;;;11.15;5.47;;;;;;;10.86;81.70;101489.88;5072491;28;20105;-73
2022/10/27 02:53:24;;;;;;;8.13;5.32;;;;;;;11.29;81.91;101563.25;5070968;28;20476;-73
2022/10/27 02:55:49;;;;;;;8.50;5.70;;;;;;;11.66;82.12;101637.38;5071219;28;20075;-73
2022/10/27 02:58:15;;;;;;;8.27;6.03;;;;;;;11.18;82.15;101556.06;5053073;28;20102;-74
2022/10/27 03:00:41;;;;;;;14.07;6.80;;;;;;;10.82;82.55;101508.22;5054522;28;20041;-74
2022/10/27 03:03:08;;;;;;;11.55;5.82;;;;;;;10.79;82.86;101514.28;5093029;28;20044;-73
2022/10/27 03:05:33;;;;;;;8.02;5.28;;;;;;;11.41;83.55;101637.91;5089646;28;20046;-73
2022/10/27 03:07:59;;;;;;;11.43;6.35;;;;;;;10.78;83.10;101513.41;5075106;28;20384;-74
2022/10/27 03:10:24;;;;;;;8.30;5.43;;;;;;;10.78;83.31;101531.78;5087644;28;20028;-74
2022/10/27 03:12:50;;;;;;;25.25;6.43;;;;;;;10.82;83.08;101522.22;5089799;28;20036;-73
2022/10/27 03:15:15;;;;;;;8.98;6.05;;;;;;;11.47;83.32;101646.75;5089746;28;20425;-74
2022/10/27 03:17:45;;;;;;;11.32;5.78;;;;;;;10.89;83.24;101528.47;5089527;28;20128;-74
2022/10/27 03:20:11;;;;;;;19.15;6.68;;;;;;;11.48;83.48;101652.03;5089058;28;20055;-74
2022/10/27 03:22:38;;;;;;;12.88;6.55;;;;;;;11.31;83.64;101630.72;5081622;28;20028;-73
2022/10/27 03:25:03;;;;;;;15.13;5.97;;;;;;;10.73;83.49;101522.06;5068345;28;20068;-73
2022/10/27 03:27:29;;;;;;;10.52;6.15;;;;;;;10.94;83.79;101572.31;5062623;28;20537;-73
2022/10/27 03:29:54;;;;;;;10.68;6.75;;;;;;;10.83;84.06;101544.97;5068920;28;20044;-74
2022/10/27 03:32:20;;;;;;;9.63;6.53;;;;;;;11.54;84.10;101657.41;5068800;28;20025;-74
2022/10/27 03:34:45;;;;;;;7.63;5.20;;;;;;;11.75;83.66;101663.81;5069558;28;20024;-74
2022/10/27 03:37:11;;;;;;;12.13;6.35;;;;;;;11.83;83.11;101664.84;5067920;28;20082;-74
2022/10/27 03:39:43;;;;;;;10.88;6.13;;;;;;;11.79;82.89;101663.91;5067774;28;20045;-73
2022/10/27 03:42:08;;;;;;;9.77;6.85;;;;;;;11.77;82.79;101644.59;5065654;28;20488;-74
2022/10/27 03:44:34;;;;;;;10.27;5.97;;;;;;;11.08;83.26;101548.91;5068606;28;20043;-74
2022/10/27 03:46:59;;;;;;;9.20;6.43;;;;;;;11.14;82.92;101567.41;5068344;28;20051;-74
2022/10/27 03:49:25;;;;;;;11.32;6.80;;;;;;;11.61;83.64;101671.50;5057415;28;20021;-73
2022/10/27 03:51:50;;;;;;;15.20;6.57;;;;;;;10.94;83.91;101550.44;5062842;28;20049;-73
2022/10/27 03:54:15;;;;;;;11.50;6.03;;;;;;;11.76;83.72;101687.53;5067446;28;20428;-73
2022/10/27 03:56:41;;;;;;;11.55;6.07;;;;;;;11.36;82.73;101586.13;5058659;28;20696;-74
2022/10/27 03:59:08;;;;;;;13.68;6.25;;;;;;;11.88;83.04;101678.09;5086111;28;20025;-74
2022/10/27 04:01:34;;;;;;;9.00;6.00;;;;;;;10.96;83.34;101560.09;5081571;28;20029;-73
2022/10/27 04:04:00;;;;;;;10.95;5.68;;;;;;;11.63;83.57;101682.94;5067026;28;20553;-73
2022/10/27 04:06:25;;;;;;;13.13;7.18;;;;;;;11.38;84.59;101685.16;5068067;28;20052;-74
2022/10/27 04:08:50;;;;;;;11.98;6.55;;;;;;;11.02;84.62;101627.59;5068626;28;20465;-74
2022/10/27 04:11:16;;;;;;;8.18;6.30;;;;;;;11.17;84.51;101653.28;5068238;28;20499;-75
2022/10/27 04:13:41;;;;;;;8.95;6.10;;;;;;;11.28;84.98;101701.59;5065527;28;20380;-75
2022/10/27 04:16:07;;;;;;;10.57;7.30;;;;;;;11.24;85.24;101694.56;5067955;28;20514;-75
2022/10/27 04:18:33;;;;;;;11.43;7.40;;;;;;;11.29;85.17;101707.78;5070020;28;20462;-75
2022/10/27 04:21:03;;;;;;;11.30;7.25;;;;;;;11.10;85.21;101683.78;5087890;28;20040;-74
2022/10/27 04:23:29;;;;;;;12.52;7.30;;;;;;;10.78;85.14;101623.66;5087965;28;20118;-76
2022/10/27 04:25:55;;;;;;;8.10;7.03;;;;;;;10.44;85.22;101567.03;5076438;28;20114;-75
2022/10/27 04:28:21;;;;;;;19.92;8.55;;;;;;;10.35;85.88;101572.13;5064744;28;20028;-74
2022/10/27 04:30:47;;;;;;;14.35;8.13;;;;;;;10.88;86.01;101666.72;5049560;28;20051;-75
2022/10/27 04:33:12;;;;;;;14.82;8.68;;;;;;;10.37;86.02;101586.13;5067403;28;20033;-74
2022/10/27 04:35:38;;;;;;;16.00;8.40;;;;;;;10.30;86.21;101571.09;5066879;28;20457;-74
2022/10/27 04:38:03;;;;;;;23.02;7.80;;;;;;;11.09;85.40;101678.50;5067623;28;20028;-75
2022/10/27 04:40:29;;;;;;;11.45;7.05;;;;;;;11.06;86.16;101702.09;5073523;28;20361;-75
2022/10/27 04:42:54;;;;;;;17.15;8.50;;;;;;;10.48;85.99;101604.72;5070454;28;20060;-76
2022/10/27 04:45:20;;;;;;;14.15;8.32;;;;;;;10.19;86.46;101578.75;5067300;28;20492;-75
2022/10/27 04:47:46;;;;;;;12.75;8.13;;;;;;;10.94;86.07;101700.13;5065865;28;20043;-74
2022/10/27 04:50:13;;;;;;;14.10;7.63;;;;;;;10.49;85.83;101590.75;5057042;28;20212;-74
2022/10/27 04:52:39;;;;;;;15.63;8.32;;;;;;;10.34;86.05;101589.56;5088180;28;20101;-74
2022/10/27 04:55:05;;;;;;;14.48;8.35;;;;;;;10.40;85.96;101591.44;5087204;28;20117;-74
2022/10/27 04:57:31;;;;;;;12.30;6.93;;;;;;;11.25;85.92;101722.59;5056064;28;20037;-74
2022/10/27 04:59:56;;;;;;;11.27;7.35;;;;;;;11.17;85.73;101718.94;5048122;28;20080;-74
2022/10/27 05:02:22;;;;;;;13.85;7.30;;;;;;;10.53;85.56;101600.44;5073455;28;20048;-74
2022/10/27 05:04:47;;;;;;;17.02;8.60;;;;;;;10.56;85.16;101590.88;5084941;28;20380;-73
2022/10/27 05:07:12;;;;;;;12.77;7.97;;;;;;;11.32;85.36;101741.97;5087505;28;20036;-73
2022/10/27 05:09:38;;;;;;;14.70;7.90;;;;;;;11.20;85.31;101734.75;5087555;28;20495;-74
2022/10/27 05:12:04;;;;;;;12.77;7.80;;;;;;;10.89;85.80;101683.41;5068441;28;20503;-73
2022/10/27 05:14:29;;;;;;;14.02;8.25;;;;;;;11.32;85.34;101739.34;5087167;28;20626;-73
2022/10/27 05:16:54;;;;;;;15.02;8.35;;;;;;;10.55;85.42;101640.72;5086831;28;20093;-73
2022/10/27 05:19:20;;;;;;;12.65;6.60;;;;;;;11.32;85.84;101749.88;5085640;28;20671;-74
2022/10/27 05:21:45;;;;;;;10.88;7.57;;;;;;;11.30;85.45;101749.81;5049204;28;20458;-74
2022/10/27 05:24:11;;;;;;;25.92;7.47;;;;;;;11.28;85.32;101748.91;5068587;28;20036;-73
2022/10/27 05:26:36;;;;;;;13.68;7.85;;;;;;;10.72;84.72;101646.28;5065492;28;20466;-73
2022/10/27 05:29:02;;;;;;;14.65;8.57;;;;;;;10.85;84.25;101664.06;5066019;28;20436;-75
2022/10/27 05:31:27;;;;;;;16.73;7.15;;;;;;;11.50;84.22;101772.97;5057631;28;20036;-73
2022/10/27 05:33:52;;;;;;;10.07;7.18;;;;;;;10.92;83.87;101649.31;5067699;28;20049;-72
2022/10/27 05:36:18;;;;;;;12.05;6.70;;;;;;;11.57;82.65;101741.56;5073696;28;20051;-74
2022/10/27 05:38:47;;;;;;;18.30;7.60;;;;;;;11.72;82.66;101753.19;5039535;28;20049;-75
2022/10/27 05:41:12;;;;;;;10.63;7.22;;;;;;;11.18;82.65;101653.28;5043192;28;20145;-74
2022/10/27 05:43:40;;;;;;;20.58;7.43;;;;;;;11.20;82.98;101674.31;5059853;28;20764;-74
2022/10/27 05:46:05;;;;;;;10.10;7.03;;;;;;;11.73;82.92;101760.22;5038980;28;20075;-75
2022/10/27 05:48:32;;;;;;;19.83;8.48;;;;;;;11.92;83.16;101787.75;5059452;28;20049;-73
2022/10/27 05:50:57;;;;;;;15.30;7.55;;;;;;;11.75;82.59;101734.81;5058698;28;20572;-75
2022/10/27 05:53:23;;;;;;;9.88;6.47;;;;;;;11.26;81.51;101647.25;5065895;28;21797;-77
2022/10/27 05:55:52;;;;;;;13.38;6.38;;;;;;;11.44;81.31;101694.00;5084365;28;20460;-75
2022/10/27 05:58:17;;;;;;;12.45;7.72;;;;;;;12.16;81.08;101801.31;5076841;28;20479;-75
2022/10/27 06:00:43;;;;;;;17.13;7.88;;;;;;;11.42;81.69;101686.09;5085849;28;20113;-75
2022/10/27 06:03:19;;;;;;;16.10;6.18;;;;;;;12.28;80.76;101813.75;5086078;28;20121;-76
2022/10/27 06:05:44;;;;;;;18.00;8.15;;;;;;;12.06;80.87;101807.28;5086567;28;20054;-74
2022/10/27 06:08:10;;;;;;;14.20;6.30;;;;;;;12.23;80.66;101813.69;5077639;28;20033;-74
2022/10/27 06:10:35;;;;;;;17.70;8.57;;;;;;;11.47;80.59;101686.16;5086460;28;20452;-76
2022/10/27 06:13:02;;;;;;;16.63;7.53;;;;;;;12.14;80.89;101817.94;5083669;28;20561;-75
2022/10/27 06:15:28;;;;;;;12.75;7.10;;;;;;;11.88;80.08;101742.09;5084876;28;20036;-76
2022/10/27 06:17:53;;;;;;;13.13;7.82;;;;;;;11.95;80.18;101749.22;5073845;28;20044;-75
2022/10/27 06:20:19;;;;;;;14.90;9.23;;;;;;;12.40;79.65;101835.00;5065847;28;20040;-76
2022/10/27 06:22:47;;;;;;;14.98;7.40;;;;;;;11.52;80.15;101710.78;5066722;28;20632;-75
2022/10/27 06:25:13;;;;;;;15.32;7.13;;;;;;;11.73;80.14;101755.88;5061177;28;20127;-74
2022/10/27 06:27:38;;;;;;;19.88;8.57;;;;;;;11.65;80.14;101738.19;5058967;28;20136;-74
2022/10/27 06:30:05;;;;;;;15.15;7.80;;;;;;;11.54;80.26;101722.19;5061535;28;20041;-74
2022/10/27 06:32:30;;;;;;;24.30;9.10;;;;;;;11.37;80.58;101721.91;5056016;28;20041;-74
2022/10/27 06:34:56;;;;;;;21.58;8.40;;;;;;;12.01;80.19;101803.66;5065712;28;20028;-74
2022/10/27 06:37:21;;;;;;;19.27;7.03;;;;;;;12.28;79.51;101823.41;5062505;28;20376;-75
2022/10/27 06:39:47;;;;;;;12.77;6.28;;;;;;;12.37;79.11;101845.50;5064953;28;20403;-73
2022/10/27 06:42:12;;;;;;;13.45;6.53;;;;;;;11.76;79.19;101770.81;5067073;28;20052;-74
2022/10/27 06:44:38;;;;;;;14.05;7.45;;;;;;;11.57;79.20;101728.41;5059016;28;20076;-74
2022/10/27 06:47:03;;;;;;;12.25;6.05;;;;;;;11.50;79.74;101723.91;5079883;28;20574;-74
2022/10/27 06:49:29;;;;;;;12.27;6.00;;;;;;;11.54;79.82;101731.00;5072400;28;20453;-74
2022/10/27 06:51:54;;;;;;;16.05;6.97;;;;;;;11.98;79.77;101793.97;5068290;28;20052;-74
2022/10/27 06:54:20;;;;;;;13.43;6.93;;;;;;;12.32;79.15;101876.13;5069206;28;20068;-75
2022/10/27 06:56:46;;;;;;;9.85;5.47;;;;;;;12.36;78.89;101833.22;5061270;28;20122;-75
2022/10/27 06:59:11;;;;;;;21.45;6.50;;;;;;;12.46;78.69;101860.56;5069395;28;20431;-75
2022/10/27 07:01:37;;;;;;;11.60;6.57;;;;;;;12.01;78.14;101732.63;5069952;28;20021;-76
2022/10/27 07:04:02;;;;;;;15.55;7.38;;;;;;;12.79;78.03;101867.19;5069262;28;20048;-75
2022/10/27 07:06:28;;;;;;;17.20;7.13;;;;;;;12.86;77.85;101853.25;5069294;28;20556;-75
2022/10/27 07:08:54;;;;;;;15.20;7.40;;;;;;;12.84;77.31;101831.25;5066151;28;20041;-75
2022/10/27 07:11:20;;;;;;;16.05;7.65;;;;;;;12.95;77.04;101845.47;5069265;28;20089;-74
2022/10/27 07:13:45;;;;;;;22.20;9.35;;;;;;;13.19;76.93;101867.72;5070174;28;20032;-74
2022/10/27 07:16:11;;;;;;;19.13;7.75;;;;;;;12.92;76.08;101791.84;5068920;28;20368;-75
2022/10/27 07:18:37;;;;;;;13.73;8.40;;;;;;;12.72;77.07;101750.31;5050663;28;20109;-73
2022/10/27 07:21:04;;;;;;;21.33;9.18;;;;;;;13.52;76.01;101870.78;5031460;28;20044;-75
2022/10/27 07:23:30;;;;;;;16.15;8.05;;;;;;;13.19;75.45;101786.03;5053951;28;20127;-75
2022/10/27 07:25:55;;;;;;;12.45;7.85;;;;;;;13.18;74.80;101755.25;5047340;28;20028;-75
2022/10/27 07:28:21;;;;;;;26.67;11.32;;;;;;;13.63;74.57;101822.56;5028711;28;20021;-75
2022/10/27 07:30:47;;;;;;;18.95;11.38;;;;;;;14.17;73.83;101879.38;5048513;28;20044;-75
2022/10/27 07:33:13;;;;;;;17.30;10.40;;;;;;;13.51;73.85;101779.38;5048573;28;20396;-76
2022/10/27 07:35:45;;;;;;;26.67;11.65;;;;;;;13.63;73.29;101768.06;5048077;28;20832;-75
2022/10/27 07:38:10;;;;;;;15.25;10.63;;;;;;;14.46;73.18;101876.06;5066742;28;20094;-76
2022/10/27 07:40:37;;;;;;;24.63;11.70;;;;;;;14.42;73.17;101864.63;5069292;28;20456;-74
2022/10/27 07:43:03;;;;;;;27.15;11.15;;;;;;;14.63;72.67;101892.94;5058250;28;20472;-76
2022/10/27 07:45:28;;;;;;;15.13;9.02;;;;;;;14.68;72.20;101875.41;5058152;28;20094;-75
2022/10/27 07:47:56;;;;;;;19.60;8.23;;;;;;;14.96;71.19;101897.59;5054030;28;20052;-75
2022/10/27 07:50:32;;;;;;;19.88;7.80;;;;;;;14.49;70.73;101797.75;5063260;28;20155;-75
2022/10/27 07:52:58;;;;;;;27.40;8.55;;;;;;;15.06;71.08;101893.22;5050304;28;20384;-74
2022/10/27 07:55:25;;;;;;;14.73;7.43;;;;;;;15.12;70.05;101893.25;5069264;28;20033;-74
2022/10/27 07:58:10;;;;;;;31.75;7.50;;;;;;;14.52;70.45;101778.41;5033058;28;20033;-75
2022/10/27 08:00:38;;;;;;;19.00;7.50;;;;;;;15.24;70.42;101897.75;5057241;28;20041;-74
2022/10/27 08:03:05;;;;;;;18.42;8.43;;;;;;;14.81;70.42;101806.75;5068016;28;20040;-74
2022/10/27 08:05:33;;;;;;;19.15;9.27;;;;;;;14.91;69.01;101777.75;5068181;28;20106;-75
2022/10/27 08:08:02;;;;;;;13.23;8.73;;;;;;;15.64;68.74;101868.78;5067784;28;20040;-74
2022/10/27 08:10:29;;;;;;;14.88;7.32;;;;;;;15.68;68.68;101891.69;5068324;28;20086;-75
2022/10/27 08:12:54;;;;;;;16.17;7.85;;;;;;;15.20;67.79;101771.66;5057084;28;20047;-74
2022/10/27 08:15:20;;;;;;;20.25;7.97;;;;;;;15.24;68.92;101784.03;5067766;28;20079;-74
2022/10/27 08:17:56;;;;;;;15.77;7.43;;;;;;;16.16;67.58;101898.00;5050472;28;20037;-74
2022/10/27 08:20:37;;;;;;;26.65;8.90;;;;;;;16.18;66.31;101896.25;5074311;28;20068;-74
2022/10/27 08:23:05;;;;;;;24.33;7.82;;;;;;;16.09;66.29;101874.19;5066170;28;20048;-76
2022/10/27 08:25:31;;;;;;;16.20;7.00;;;;;;;16.19;66.80;101898.00;5048588;28;20163;-74
2022/10/27 08:27:58;;;;;;;27.50;8.52;;;;;;;16.34;65.86;101873.31;5049594;28;20052;-74
2022/10/27 08:30:26;;;;;;;14.93;8.00;;;;;;;15.92;65.77;101785.03;5039996;28;20056;-74
2022/10/27 08:32:56;;;;;;;21.45;7.50;;;;;;;15.90;64.75;101784.16;5068556;28;20043;-74
2022/10/27 08:35:22;;;;;;;9.57;6.43;;;;;;;15.82;64.92;101797.38;5049430;28;20044;-74
2022/10/27 08:37:48;;;;;;;9.00;6.68;;;;;;;16.54;65.04;101891.81;5068029;28;20036;-74
2022/10/27 08:40:14;;;;;;;12.38;6.63;;;;;;;16.33;64.57;101857.41;5085136;28;20341;-74
2022/10/27 08:43:18;;;;;;;11.63;5.60;;;;;;;15.96;65.05;101789.44;5086112;28;20329;-74
2022/10/27 08:45:49;;;;;;;;;;;;;;;16.71;63.95;101904.16;4997911;28;20039;-73
2022/10/27 08:48:21;;;;;;;12.50;7.05;;;;;;;16.18;64.09;101830.03;5051347;28;19976;-75
2022/10/27 08:50:47;;;;;;;29.63;8.95;;;;;;;16.12;63.65;101795.59;5070911;28;20107;-74
2022/10/27 08:53:21;;;;;;;12.02;6.65;;;;;;;16.77;64.02;101896.22;5074665;28;20049;-74
2022/10/27 08:55:56;;;;;;;18.10;6.60;;;;;;;16.72;64.73;101901.53;5068710;28;20047;-74
2022/10/27 08:58:43;;;;;;;12.60;7.00;;;;;;;16.90;64.44;101902.41;5049062;28;20408;-75
2022/10/27 09:01:16;;;;;;;22.02;7.50;;;;;;;16.60;63.56;101825.56;5064848;28;20051;-74
2022/10/27 09:03:54;;;;;;;17.88;6.70;;;;;;;16.71;63.76;101837.91;5062731;28;20049;-75
2022/10/27 09:06:32;;;;;;;10.95;6.25;;;;;;;16.55;62.20;101784.06;5041734;28;20392;-73
2022/10/27 09:09:23;;;;;;;10.52;5.32;;;;;;;16.65;62.41;101802.59;5086974;28;20047;-76
2022/10/27 09:12:11;;;;;;;12.52;6.20;;;;;;;17.30;62.38;101898.75;5068720;28;20426;-74
2022/10/27 09:14:55;;;;;;;9.50;4.90;;;;;;;17.37;61.38;101889.00;5065176;28;20139;-74
2022/10/27 09:17:26;;;;;;;13.90;6.78;;;;;;;16.81;60.08;101766.34;5074081;28;20480;-73
2022/10/27 09:20:31;;;;;;;7.28;4.25;;;;;;;17.70;59.04;101887.06;5066984;28;20052;-74
2022/10/27 09:23:00;;;;;;;13.50;6.00;;;;;;;17.71;59.40;101886.16;5048236;28;20075;-76
2022/10/27 09:25:27;;;;;;;10.48;6.10;;;;;;;17.82;58.49;101863.13;5061940;28;20029;-75
2022/10/27 09:27:56;;;;;;;10.85;5.38;;;;;;;17.83;58.66;101872.84;5034144;28;20040;-75
2022/10/27 09:30:22;;;;;;;10.68;4.60;;;;;;;17.15;59.30;101760.88;5036677;28;20052;-77
2022/10/27 09:32:52;;;;;;;11.05;5.65;;;;;;;17.50;58.99;101788.97;5044516;28;20049;-75
2022/10/27 09:35:23;;;;;;;11.50;3.92;;;;;;;17.40;56.71;101768.69;5046198;28;20045;-74
2022/10/27 09:37:50;;;;;;;10.68;4.45;;;;;;;18.00;57.57;101861.22;5046979;28;20025;-75
2022/10/27 09:40:18;;;;;;;7.75;3.60;;;;;;;17.44;56.73;101755.41;5045510;28;20033;-75
2022/10/27 09:42:52;;;;;;;11.85;3.05;;;;;;;17.98;56.14;101844.41;5059487;28;20040;-75
2022/10/27 09:45:21;;;;;;;;;;;;;;;18.23;56.57;101869.00;5043450;28;20053;-73
2022/10/27 09:47:51;;;;;;;8.30;3.72;;;;;;;17.75;55.96;101773.75;5065174;28;19920;-75
2022/10/27 09:50:43;;;;;;;8.43;3.58;;;;;;;18.41;55.48;101874.16;5046284;28;20037;-75
2022/10/27 09:53:51;;;;;;;12.93;5.65;;;;;;;18.72;54.61;101855.25;5043238;28;20075;-74
2022/10/27 09:56:33;;;;;;;6.80;3.47;;;;;;;18.52;54.53;101863.44;4981243;28;20097;-74
2022/10/27 09:59:04;;;;;;;13.43;3.83;;;;;;;17.76;55.75;101756.03;5034201;28;20045;-73
2022/10/27 10:01:39;;;;;;;14.20;3.78;;;;;;;18.30;56.08;101858.31;5041331;28;20144;-75
2022/10/27 10:04:15;;;;;;;11.23;3.60;;;;;;;18.48;55.84;101864.38;5044919;28;20045;-74
2022/10/27 10:06:41;;;;;;;7.47;2.65;;;;;;;18.58;54.82;101862.50;5044559;28;20049;-74
2022/10/27 10:09:16;;;;;;;8.02;3.10;;;;;;;18.74;54.84;101869.41;5046417;28;20048;-75
2022/10/27 10:11:41;;;;;;;8.73;3.58;;;;;;;18.72;55.11;101850.81;5046159;28;20037;-74
2022/10/27 10:14:18;;;;;;;8.00;3.55;;;;;;;18.44;53.77;101825.41;5046198;28;20111;-75
2022/10/27 10:16:44;;;;;;;7.65;3.53;;;;;;;18.66;54.88;101850.88;5047070;28;20087;-74
2022/10/27 10:19:18;;;;;;;11.75;4.88;;;;;;;18.80;54.19;101844.56;5051184;28;20842;-76
2022/10/27 10:21:50;;;;;;;9.95;4.50;;;;;;;18.25;54.43;101747.66;5069722;28;20036;-74
2022/10/27 10:24:22;;;;;;;6.00;3.38;;;;;;;18.75;53.93;101818.88;5070247;28;20496;-74
2022/10/27 10:26:52;;;;;;;7.10;3.37;;;;;;;18.51;54.84;101843.06;5069278;28;20164;-75
2022/10/27 10:29:35;;;;;;;22.63;3.75;;;;;;;18.21;54.31;101743.25;5067952;28;20537;-74
2022/10/27 10:32:30;;;;;;;9.00;3.35;;;;;;;18.86;52.94;101842.72;5072733;28;20048;-74
2022/10/27 10:34:56;;;;;;;10.00;3.08;;;;;;;18.94;52.38;101842.63;5080632;28;20050;-76
2022/10/27 10:37:29;;;;;;;4.78;2.85;;;;;;;18.54;53.11;101753.53;5070666;28;20025;-75
2022/10/27 10:39:54;;;;;;;;;;;;;;;19.19;52.40;101841.41;5080248;28;20056;-75
2022/10/27 10:42:19;;;;;;;9.07;3.20;;;;;;;18.76;53.11;101718.72;5089206;28;19923;-74
2022/10/27 10:44:45;;;;;;;11.27;3.40;;;;;;;18.86;51.61;101725.69;5072633;28;20733;-75
2022/10/27 10:47:26;;;;;;;7.20;2.85;;;;;;;19.33;51.64;101835.91;5077584;28;20149;-73
2022/10/27 10:50:01;;;;;;;6.05;2.67;;;;;;;19.15;51.60;101805.13;5071464;28;20024;-75
2022/10/27 10:52:36;;;;;;;6.25;2.05;;;;;;;19.25;50.07;101820.97;5070801;28;20076;-76
2022/10/27 10:55:34;;;;;;;8.27;3.03;;;;;;;19.06;49.46;101746.72;5068325;28;20067;-76
2022/10/27 10:58:00;;;;;;;6.05;2.35;;;;;;;19.28;49.98;101796.97;5046388;28;20048;-76
2022/10/27 11:00:26;;;;;;;4.13;2.00;;;;;;;18.85;50.10;101755.84;5035670;28;20057;-76
2022/10/27 11:02:54;;;;;;;7.95;2.33;;;;;;;19.30;49.75;101827.09;5067884;28;20051;-75
2022/10/27 11:05:34;;;;;;;8.15;2.75;;;;;;;19.57;50.65;101840.03;5069436;28;20033;-73
2022/10/27 11:08:01;;;;;;;8.98;3.63;;;;;;;19.55;49.19;101825.88;5069488;28;20123;-74
2022/10/27 11:10:36;;;;;;;6.00;2.35;;;;;;;19.32;49.81;101770.28;5069503;28;20124;-74
2022/10/27 11:13:15;;;;;;;7.20;3.22;;;;;;;19.49;50.12;101822.41;5072181;28;20063;-74
2022/10/27 11:15:53;;;;;;;4.82;2.42;;;;;;;19.22;49.62;101718.06;5088242;28;20080;-75
2022/10/27 11:18:28;;;;;;;13.98;3.55;;;;;;;19.85;49.51;101813.00;5089142;28;20131;-74
2022/10/27 11:21:11;;;;;;;7.45;2.05;;;;;;;18.74;48.30;101646.03;5070302;28;20451;-75
2022/10/27 11:23:47;;;;;;;5.03;2.63;;;;;;;19.70;48.70;101810.59;5052472;28;20052;-75
2022/10/27 11:26:18;;;;;;;10.70;2.78;;;;;;;19.67;48.16;101814.16;5065820;28;20068;-75
2022/10/27 11:29:12;;;;;;;12.90;2.60;;;;;;;19.51;48.49;101812.63;5077653;28;20391;-75
2022/10/27 11:32:15;;;;;;;6.25;1.98;;;;;;;19.78;48.23;101806.00;5077520;28;20067;-74